createdAt,value
2023-01-13T00:01:40.693Z,23.92
2023-01-13T00:04:12.226Z,25.50
2023-01-13T00:06:41.036Z,20.10
2023-01-13T00:09:10.083Z,25.48
2023-01-13T00:11:38.925Z,35.03
2023-01-13T00:14:07.845Z,46.05
2023-01-13T00:16:36.513Z,35.83
2023-01-13T00:19:05.411Z,28.77
2023-01-13T00:21:34.264Z,22.10
2023-01-13T00:24:03.269Z,29.40
2023-01-13T00:26:34.523Z,38.92
2023-01-13T00:29:04.356Z,30.17
2023-01-13T00:31:33.179Z,34.33
2023-01-13T00:34:02.782Z,23.65
2023-01-13T00:36:32.745Z,30.30
2023-01-13T00:39:01.562Z,23.25
2023-01-13T00:41:50.292Z,23.42
2023-01-13T00:44:19.088Z,25.80
2023-01-13T00:46:47.916Z,18.65
2023-01-13T00:49:16.693Z,23.65
2023-01-13T00:51:45.733Z,27.55
2023-01-13T00:54:14.372Z,25.70
2023-01-13T00:56:43.476Z,27.20
2023-01-13T00:59:14.160Z,27.60
2023-01-13T01:01:43.250Z,25.00
2023-01-13T01:04:12.907Z,22.27
2023-01-13T01:06:41.735Z,25.58
2023-01-13T01:09:16.241Z,28.23
2023-01-13T01:11:45.587Z,36.78
2023-01-13T01:14:16.907Z,28.17
2023-01-13T01:16:45.548Z,30.85
2023-01-13T01:19:14.479Z,31.83
2023-01-13T01:21:43.190Z,27.67
2023-01-13T01:24:12.085Z,27.73
2023-01-13T01:26:42.522Z,35.25
2023-01-13T01:29:16.043Z,32.60
2023-01-13T01:31:44.963Z,30.60
2023-01-13T01:34:13.908Z,30.65
2023-01-13T01:36:42.882Z,30.30
2023-01-13T01:39:12.425Z,29.35
2023-01-13T01:42:01.565Z,25.13
2023-01-13T01:44:59.503Z,36.25
2023-01-13T01:47:31.697Z,31.25
2023-01-13T01:50:02.993Z,30.67
2023-01-13T01:52:37.378Z,22.92
2023-01-13T01:55:19.055Z,26.05
2023-01-13T01:57:55.631Z,30.60
2023-01-13T02:00:24.928Z,35.58
2023-01-13T02:02:54.411Z,34.00
2023-01-13T02:05:23.951Z,28.63
2023-01-13T02:07:55.928Z,27.73
2023-01-13T02:10:28.351Z,35.83
2023-01-13T02:13:04.604Z,38.45
2023-01-13T02:16:02.438Z,55.30
2023-01-13T02:18:41.870Z,60.13
2023-01-13T02:21:49.544Z,52.75
2023-01-13T02:24:42.628Z,51.92
2023-01-13T02:27:32.474Z,40.58
2023-01-13T02:30:44.927Z,52.35
2023-01-13T02:33:50.443Z,42.65
2023-01-13T02:36:30.727Z,45.13
2023-01-13T02:39:03.947Z,41.83
2023-01-13T02:42:00.931Z,46.05
2023-01-13T02:44:34.165Z,40.83
2023-01-13T02:47:02.863Z,42.78
2023-01-13T02:49:40.642Z,39.58
2023-01-13T02:52:18.723Z,36.22
2023-01-13T02:54:55.807Z,32.05
2023-01-13T02:57:28.353Z,30.13
2023-01-13T02:59:57.748Z,27.35
2023-01-13T03:02:30.181Z,31.27
2023-01-13T03:05:00.977Z,28.38
2023-01-13T03:07:57.601Z,25.38
2023-01-13T03:10:38.757Z,22.23
2023-01-13T03:13:20.296Z,23.83
2023-01-13T03:16:19.079Z,23.75
2023-01-13T03:19:17.002Z,22.45
2023-01-13T03:21:52.673Z,24.92
2023-01-13T03:24:37.284Z,19.85
2023-01-13T03:29:42.425Z,27.67
2023-01-13T03:32:41.716Z,30.30
2023-01-13T03:35:32.063Z,40.90
2023-01-13T03:38:07.577Z,22.63
2023-01-13T03:41:00.095Z,25.42
2023-01-13T03:44:01.645Z,24.00
2023-01-13T03:46:40.777Z,26.25
2023-01-13T03:49:13.332Z,26.23
2023-01-13T03:51:48.545Z,36.50
2023-01-13T03:54:20.389Z,33.47
2023-01-13T03:56:55.764Z,35.72
2023-01-13T03:59:32.315Z,37.25
2023-01-13T04:02:10.273Z,24.27
2023-01-13T04:04:58.910Z,31.65
2023-01-13T04:07:46.066Z,29.63
2023-01-13T04:10:19.429Z,29.08
2023-01-13T04:13:10.131Z,32.47
2023-01-13T04:15:41.850Z,31.30
2023-01-13T04:18:18.319Z,29.50
2023-01-13T04:20:49.584Z,32.10
2023-01-13T04:23:20.017Z,35.85
2023-01-13T04:25:49.513Z,33.85
2023-01-13T04:28:19.106Z,38.60
2023-01-13T04:30:48.979Z,30.67
2023-01-13T04:33:20.029Z,37.55
2023-01-13T04:35:49.425Z,35.75
2023-01-13T04:38:20.584Z,31.65
2023-01-13T04:40:49.363Z,36.53
2023-01-13T04:43:18.543Z,36.85
2023-01-13T04:45:47.163Z,36.85
2023-01-13T04:48:15.889Z,37.55
2023-01-13T04:50:44.625Z,27.50
2023-01-13T04:53:13.386Z,35.47
2023-01-13T04:55:42.223Z,30.63
2023-01-13T04:58:12.163Z,23.77
2023-01-13T05:00:40.925Z,15.60
2023-01-13T05:03:12.090Z,27.00
2023-01-13T05:05:40.863Z,16.98
2023-01-13T05:08:09.855Z,22.20
2023-01-13T05:10:38.665Z,23.30
2023-01-13T05:13:25.543Z,21.48
2023-01-13T05:16:12.407Z,25.40
2023-01-13T05:18:41.327Z,20.00
2023-01-13T05:21:29.783Z,23.95
2023-01-13T05:24:19.028Z,20.35
2023-01-13T05:26:47.685Z,28.15
2023-01-13T05:29:16.327Z,29.98
2023-01-13T05:31:45.043Z,27.90
2023-01-13T05:34:13.796Z,28.02
2023-01-13T05:36:42.557Z,28.00
2023-01-13T05:39:11.103Z,25.55
2023-01-13T05:41:58.223Z,34.25
2023-01-13T05:44:27.058Z,29.45
2023-01-13T05:46:55.984Z,28.80
2023-01-13T05:49:24.703Z,28.73
2023-01-13T05:51:53.483Z,25.75
2023-01-13T05:54:21.977Z,25.40
2023-01-13T05:56:50.588Z,23.10
2023-01-13T05:59:19.349Z,26.33
2023-01-13T06:01:47.890Z,33.10
2023-01-13T06:04:16.539Z,28.33
2023-01-13T06:06:46.087Z,35.38
2023-01-13T06:09:14.853Z,42.63
2023-01-13T06:11:44.073Z,37.17
2023-01-13T06:14:12.576Z,61.00
2023-01-13T06:16:41.232Z,27.88
2023-01-13T06:19:13.719Z,28.60
2023-01-13T06:21:42.946Z,27.92
2023-01-13T06:24:11.693Z,30.52
2023-01-13T06:26:41.460Z,28.85
2023-01-13T06:29:13.503Z,45.00
2023-01-13T06:31:42.274Z,20.42
2023-01-13T06:34:14.117Z,25.13
2023-01-13T06:36:50.515Z,27.33
2023-01-13T06:39:23.411Z,37.38
2023-01-13T06:42:13.046Z,32.67
2023-01-13T06:44:41.562Z,29.35
2023-01-13T06:47:10.445Z,24.98
2023-01-13T06:49:38.951Z,33.72
2023-01-13T06:52:07.821Z,28.80
2023-01-13T06:54:36.570Z,36.50
2023-01-13T06:57:05.416Z,29.58
2023-01-13T06:59:37.021Z,30.98
2023-01-13T07:02:05.508Z,27.05
2023-01-13T07:04:34.401Z,23.70
2023-01-13T07:07:05.579Z,24.05
2023-01-13T07:09:34.394Z,22.10
2023-01-13T07:12:02.827Z,23.67
2023-01-13T07:14:49.963Z,22.38
2023-01-13T07:17:25.932Z,27.08
2023-01-13T07:19:54.461Z,27.33
2023-01-13T07:22:23.128Z,24.25
2023-01-13T07:24:55.065Z,23.38
2023-01-13T07:27:23.703Z,21.67
2023-01-13T07:29:52.275Z,28.50
2023-01-13T07:32:21.010Z,23.48
2023-01-13T07:34:50.086Z,17.80
2023-01-13T07:37:18.674Z,23.60
2023-01-13T07:39:47.164Z,25.55
2023-01-13T07:42:34.339Z,17.88
2023-01-13T07:45:03.924Z,17.23
2023-01-13T07:47:32.628Z,19.10
2023-01-13T07:50:01.170Z,18.98
2023-01-13T07:52:32.384Z,17.55
2023-01-13T07:55:01.239Z,23.52
2023-01-13T07:57:29.931Z,19.08
2023-01-13T07:59:58.452Z,19.58
2023-01-13T08:02:30.537Z,20.60
2023-01-13T08:07:32.900Z,18.17
2023-01-13T08:10:02.267Z,19.38
2023-01-13T08:12:51.940Z,17.75
2023-01-13T08:15:36.221Z,21.20
2023-01-13T08:18:13.264Z,20.00
2023-01-13T08:21:04.286Z,41.28
2023-01-13T08:23:34.132Z,43.85
2023-01-13T08:26:05.052Z,35.60
2023-01-13T08:28:33.857Z,21.55
2023-01-13T08:31:04.883Z,27.67
2023-01-13T08:33:34.143Z,27.65
2023-01-13T08:36:07.545Z,21.08
2023-01-13T08:38:37.458Z,31.23
2023-01-13T08:41:13.743Z,22.17
2023-01-13T08:43:42.982Z,18.15
2023-01-13T08:46:12.312Z,16.13
2023-01-13T08:48:41.058Z,15.98
2023-01-13T08:51:12.283Z,20.38
2023-01-13T08:53:40.841Z,19.25
2023-01-13T08:56:12.548Z,20.02
2023-01-13T08:58:41.756Z,17.60
2023-01-13T09:01:16.142Z,18.92
2023-01-13T09:03:44.804Z,9.35
2023-01-13T09:06:13.327Z,18.80
2023-01-13T09:08:45.002Z,18.65
2023-01-13T09:11:48.462Z,19.90
2023-01-13T09:14:25.666Z,19.23
2023-01-13T09:16:54.290Z,21.75
2023-01-13T09:19:23.202Z,16.85
2023-01-13T09:21:53.458Z,25.42
2023-01-13T09:24:22.546Z,22.45
2023-01-13T09:26:51.522Z,20.10
2023-01-13T09:29:20.105Z,21.23
2023-01-13T09:31:48.972Z,18.10
2023-01-13T09:34:39.411Z,17.08
2023-01-13T09:37:09.073Z,12.85
2023-01-13T09:39:38.471Z,14.57
2023-01-13T09:43:01.024Z,12.75
2023-01-13T09:45:33.755Z,17.02
2023-01-13T09:48:24.051Z,18.42
2023-01-13T09:51:04.149Z,16.95
2023-01-13T09:53:41.150Z,16.05
2023-01-13T09:56:12.219Z,20.67
2023-01-13T09:58:40.989Z,20.52
2023-01-13T10:01:16.601Z,23.13
2023-01-13T10:03:46.142Z,20.98
2023-01-13T10:06:24.867Z,21.65
2023-01-13T10:08:54.220Z,19.80
2023-01-13T10:11:44.395Z,20.67
2023-01-13T10:14:18.846Z,18.50
2023-01-13T10:19:50.992Z,21.42
2023-01-13T10:22:48.409Z,11.82
2023-01-13T10:25:26.649Z,15.25
2023-01-13T10:28:04.952Z,16.95
2023-01-13T10:30:40.843Z,17.58
2023-01-13T10:33:26.950Z,14.35
2023-01-13T10:36:13.634Z,16.83
2023-01-13T10:38:48.260Z,19.88
2023-01-13T10:41:17.235Z,15.25
2023-01-13T10:43:59.153Z,15.13
2023-01-13T10:46:28.994Z,18.90
2023-01-13T10:49:00.476Z,12.93
2023-01-13T10:51:31.894Z,19.73
2023-01-13T10:54:13.880Z,23.23
2023-01-13T10:56:45.804Z,23.83
2023-01-13T10:59:29.534Z,20.73
2023-01-13T11:02:19.845Z,26.05
2023-01-13T11:04:56.569Z,29.33
2023-01-13T11:07:32.689Z,24.33
2023-01-13T11:10:07.815Z,23.95
2023-01-13T11:12:48.872Z,18.55
2023-01-13T11:15:23.177Z,16.77
2023-01-13T11:20:44.047Z,19.27
2023-01-13T11:23:35.360Z,14.80
2023-01-13T11:26:13.463Z,15.15
2023-01-13T11:29:18.154Z,18.13
2023-01-13T11:31:53.005Z,12.23
2023-01-13T11:34:42.905Z,13.88
2023-01-13T11:37:21.352Z,14.75
2023-01-13T11:40:08.371Z,20.02
2023-01-13T11:42:43.112Z,28.98
2023-01-13T11:45:42.705Z,19.92
2023-01-13T11:48:21.980Z,19.42
2023-01-13T11:50:57.652Z,15.30
2023-01-13T11:53:45.428Z,15.07
2023-01-13T11:56:22.143Z,18.20
2023-01-13T11:59:22.606Z,17.05
2023-01-13T12:02:08.909Z,19.85
2023-01-13T12:04:59.188Z,26.63
2023-01-13T12:07:57.003Z,24.55
2023-01-13T12:10:49.944Z,34.30
2023-01-13T12:13:29.928Z,34.30
2023-01-13T12:16:16.828Z,37.00
2023-01-13T12:19:13.183Z,36.00
2023-01-13T12:22:08.503Z,28.48
2023-01-13T12:24:49.183Z,23.05
2023-01-13T12:27:47.471Z,26.75
2023-01-13T12:30:28.104Z,23.23
2023-01-13T12:33:08.333Z,23.92
2023-01-13T12:35:52.923Z,20.23
2023-01-13T12:38:38.390Z,22.00
2023-01-13T12:42:08.425Z,15.05
2023-01-13T12:44:37.876Z,15.10
2023-01-13T12:47:39.629Z,21.35
2023-01-13T12:50:23.442Z,17.48
2023-01-13T12:52:54.654Z,15.13
2023-01-13T12:55:37.000Z,16.55
2023-01-13T12:58:06.086Z,18.25
2023-01-13T13:00:41.718Z,20.80
2023-01-13T13:03:15.209Z,21.67
2023-01-13T13:05:58.057Z,19.95
2023-01-13T13:08:48.282Z,18.00
2023-01-13T13:11:40.214Z,25.15
2023-01-13T13:14:15.249Z,18.85
2023-01-13T13:16:52.390Z,22.70
2023-01-13T13:19:23.360Z,26.55
2023-01-13T13:22:13.182Z,22.60
2023-01-13T13:24:43.997Z,25.35
2023-01-13T13:27:18.802Z,22.08
2023-01-13T13:29:53.580Z,19.90
2023-01-13T13:33:01.054Z,21.35
2023-01-13T13:35:55.959Z,18.23
2023-01-13T13:39:02.410Z,16.73
2023-01-13T13:41:50.055Z,24.17
2023-01-13T13:45:02.215Z,46.72
2023-01-13T13:47:38.875Z,76.68
2023-01-13T13:50:14.738Z,139.50
2023-01-13T13:53:06.981Z,176.48
2023-01-13T13:55:38.005Z,200.77
2023-01-13T13:58:14.979Z,160.18
2023-01-13T14:00:49.290Z,160.65
2023-01-13T14:03:33.821Z,112.10
2023-01-13T14:06:10.759Z,40.58
2023-01-13T14:08:46.826Z,25.35
2023-01-13T14:11:29.633Z,22.23
2023-01-13T14:14:07.818Z,16.33
2023-01-13T14:16:39.351Z,21.27
2023-01-13T14:19:46.298Z,26.10
2023-01-13T14:22:17.712Z,19.42
2023-01-13T14:24:50.015Z,29.65
2023-01-13T14:27:20.648Z,30.25
2023-01-13T14:29:50.033Z,28.17
2023-01-13T14:32:32.608Z,23.77
2023-01-13T14:35:02.750Z,17.35
2023-01-13T14:37:35.915Z,14.60
2023-01-13T14:40:06.200Z,14.98
2023-01-13T14:42:36.147Z,13.95
2023-01-13T14:45:05.415Z,10.82
2023-01-13T14:47:34.676Z,14.85
2023-01-13T14:50:22.907Z,16.42
2023-01-13T14:52:56.789Z,13.43
2023-01-13T14:55:29.716Z,19.20
2023-01-13T14:58:24.144Z,12.88
2023-01-13T15:01:13.113Z,10.30
2023-01-13T15:03:42.904Z,12.95
2023-01-13T15:06:26.562Z,15.48
2023-01-13T15:08:55.601Z,13.07
2023-01-13T15:11:29.119Z,12.80
2023-01-13T15:14:05.021Z,13.05
2023-01-13T15:16:35.010Z,15.73
2023-01-13T15:19:05.047Z,13.95
2023-01-13T15:21:35.352Z,16.35
2023-01-13T15:24:05.190Z,17.33
2023-01-13T15:26:35.768Z,14.45
2023-01-13T15:29:05.865Z,19.80
2023-01-13T15:31:34.633Z,13.50
2023-01-13T15:34:03.344Z,14.10
2023-01-13T15:36:34.818Z,13.68
2023-01-13T15:39:04.523Z,15.02
2023-01-13T15:41:51.299Z,16.40
2023-01-13T15:44:38.501Z,14.68
2023-01-13T15:47:14.591Z,15.50
2023-01-13T15:49:47.764Z,13.57
2023-01-13T15:52:28.149Z,16.40
2023-01-13T15:54:56.579Z,21.38
2023-01-13T15:57:29.609Z,19.33
2023-01-13T16:00:10.259Z,24.70
2023-01-13T16:02:39.282Z,24.85
2023-01-13T16:05:10.706Z,22.20
2023-01-13T16:07:39.805Z,25.00
2023-01-13T16:10:17.810Z,17.48
2023-01-13T16:12:49.341Z,17.60
2023-01-13T16:15:23.042Z,18.73
2023-01-13T16:18:00.453Z,18.38
2023-01-13T16:20:29.346Z,14.13
2023-01-13T16:22:57.934Z,16.80
2023-01-13T16:25:28.313Z,13.63
2023-01-13T16:27:56.995Z,14.43
2023-01-13T16:30:38.362Z,16.25
2023-01-13T16:33:08.984Z,22.20
2023-01-13T16:35:43.852Z,21.52
2023-01-13T16:38:26.848Z,21.83
2023-01-13T16:40:58.148Z,10.73
2023-01-13T16:43:28.668Z,9.30
2023-01-13T16:45:57.666Z,15.27
2023-01-13T16:48:26.480Z,15.00
2023-01-13T16:50:55.340Z,9.25
2023-01-13T16:53:24.515Z,9.02
2023-01-13T16:55:53.640Z,11.45
2023-01-13T16:58:22.634Z,12.63
2023-01-13T17:00:53.040Z,13.45
2023-01-13T17:03:22.047Z,14.07
2023-01-13T17:05:50.771Z,12.63
2023-01-13T17:08:19.889Z,10.30
2023-01-13T17:10:48.934Z,11.88
2023-01-13T17:13:17.833Z,12.25
2023-01-13T17:15:47.556Z,16.48
2023-01-13T17:18:16.510Z,11.00
2023-01-13T17:20:45.816Z,12.07
2023-01-13T17:23:15.677Z,10.88
2023-01-13T17:25:44.648Z,9.98
2023-01-13T17:28:13.377Z,16.25
2023-01-13T17:30:45.265Z,13.98
2023-01-13T17:33:16.804Z,15.13
2023-01-13T17:35:46.800Z,8.10
2023-01-13T17:38:15.623Z,13.70
2023-01-13T17:40:46.992Z,11.05
2023-01-13T17:43:15.307Z,9.80
2023-01-13T17:45:46.716Z,16.52
2023-01-13T17:48:15.346Z,15.07
2023-01-13T17:50:50.723Z,8.50
2023-01-13T17:53:21.137Z,13.52
2023-01-13T17:55:56.773Z,9.82
2023-01-13T17:58:28.039Z,10.43
2023-01-13T18:00:56.747Z,9.05
2023-01-13T18:03:25.489Z,10.95
2023-01-13T18:05:54.071Z,9.95
2023-01-13T18:08:24.362Z,8.73
2023-01-13T18:10:53.313Z,7.53
2023-01-13T18:13:21.834Z,10.80
2023-01-13T18:15:50.366Z,9.68
2023-01-13T18:18:18.985Z,9.70
2023-01-13T18:21:06.327Z,7.03
2023-01-13T18:23:53.148Z,9.35
2023-01-13T18:26:39.929Z,10.43
2023-01-13T18:29:08.807Z,11.32
2023-01-13T18:31:37.546Z,8.48
2023-01-13T18:34:08.488Z,10.25
2023-01-13T18:36:37.805Z,9.73
2023-01-13T18:39:07.042Z,7.43
2023-01-13T18:41:54.849Z,11.13
2023-01-13T18:44:23.649Z,14.70
2023-01-13T18:46:52.648Z,10.63
2023-01-13T18:49:21.407Z,8.48
2023-01-13T18:51:50.712Z,9.55
2023-01-13T18:54:20.509Z,9.48
2023-01-13T18:56:50.235Z,10.98
2023-01-13T18:59:19.304Z,9.10
2023-01-13T19:01:48.205Z,9.88
2023-01-13T19:04:18.312Z,10.50
2023-01-13T19:06:50.387Z,11.48
2023-01-13T19:09:21.794Z,11.48
2023-01-13T19:11:51.174Z,9.07
2023-01-13T19:14:38.020Z,10.70
2023-01-13T19:17:13.383Z,8.80
2023-01-13T19:19:46.930Z,8.10
2023-01-13T19:22:23.575Z,6.90
2023-01-13T19:24:52.457Z,7.22
2023-01-13T19:27:22.153Z,7.88
2023-01-13T19:29:52.956Z,9.00
2023-01-13T19:32:22.644Z,10.18
2023-01-13T19:34:51.917Z,11.55
2023-01-13T19:37:21.327Z,8.88
2023-01-13T19:39:50.887Z,9.90
2023-01-13T19:42:37.911Z,9.40
2023-01-13T19:45:25.719Z,9.02
2023-01-13T19:47:55.848Z,7.95
2023-01-13T19:50:25.279Z,8.13
2023-01-13T19:52:54.429Z,10.05
2023-01-13T19:55:23.726Z,9.70
2023-01-13T19:57:52.662Z,12.32
2023-01-13T20:00:22.630Z,11.05
2023-01-13T20:02:53.778Z,10.30
2023-01-13T20:05:26.471Z,8.30
2023-01-13T20:07:55.542Z,10.38
2023-01-13T20:10:25.631Z,10.13
2023-01-13T20:12:54.524Z,10.18
2023-01-13T20:15:23.452Z,9.23
2023-01-13T20:17:52.861Z,8.43
2023-01-13T20:20:22.119Z,6.53
2023-01-13T20:22:51.151Z,7.65
2023-01-13T20:25:21.140Z,12.85
2023-01-13T20:27:50.179Z,9.60
2023-01-13T20:30:18.967Z,9.82
2023-01-13T20:32:47.687Z,9.80
2023-01-13T20:35:16.670Z,9.38
2023-01-13T20:37:45.420Z,9.38
2023-01-13T20:40:17.011Z,6.50
2023-01-13T20:42:45.994Z,7.78
2023-01-13T20:45:22.481Z,7.25
2023-01-13T20:47:51.330Z,8.02
2023-01-13T20:50:20.370Z,9.43
2023-01-13T20:52:49.574Z,8.68
2023-01-13T20:55:18.631Z,9.85
2023-01-13T20:57:49.674Z,42.33
2023-01-13T21:00:18.979Z,9.73
2023-01-13T21:02:47.869Z,13.18
2023-01-13T21:05:16.921Z,6.85
2023-01-13T21:07:46.054Z,8.73
2023-01-13T21:10:14.728Z,7.10
2023-01-13T21:13:01.877Z,10.63
2023-01-13T21:15:30.417Z,9.38
2023-01-13T21:18:17.886Z,8.68
2023-01-13T21:20:46.774Z,7.93
2023-01-13T21:23:15.845Z,7.47
2023-01-13T21:25:44.713Z,11.73
2023-01-13T21:28:14.617Z,20.35
2023-01-13T21:30:44.712Z,8.43
2023-01-13T21:33:15.171Z,10.30
2023-01-13T21:35:43.938Z,8.55
2023-01-13T21:38:13.151Z,10.68
2023-01-13T21:40:41.834Z,7.25
2023-01-13T21:43:32.024Z,10.90
2023-01-13T21:46:19.893Z,8.45
2023-01-13T21:48:48.764Z,7.88
2023-01-13T21:51:17.674Z,8.00
2023-01-13T21:53:46.295Z,10.32
2023-01-13T21:56:15.171Z,12.80
2023-01-13T21:58:43.935Z,13.20
2023-01-13T22:01:12.985Z,12.02
2023-01-13T22:04:00.539Z,11.20
2023-01-13T22:06:29.902Z,11.07
2023-01-13T22:09:02.082Z,7.10
2023-01-13T22:11:31.313Z,9.55
2023-01-13T22:14:12.143Z,7.57
2023-01-13T22:16:50.430Z,10.05
2023-01-13T22:19:19.393Z,10.43
2023-01-13T22:21:48.304Z,8.68
2023-01-13T22:24:17.253Z,9.13
2023-01-13T22:26:46.044Z,13.18
2023-01-13T22:29:14.975Z,6.68
2023-01-13T22:31:44.068Z,10.18
2023-01-13T22:34:13.845Z,8.02
2023-01-13T22:36:42.696Z,8.10
2023-01-13T22:39:14.910Z,8.43
2023-01-13T22:41:43.547Z,9.65
2023-01-13T22:44:12.381Z,7.45
2023-01-13T22:46:41.351Z,13.57
2023-01-13T22:49:11.768Z,10.07
2023-01-13T22:51:40.705Z,9.75
2023-01-13T22:54:10.450Z,10.45
2023-01-13T22:56:39.831Z,8.20
2023-01-13T22:59:10.399Z,10.73
2023-01-13T23:01:39.488Z,10.63
2023-01-13T23:04:08.687Z,8.13
2023-01-13T23:06:37.460Z,8.10
2023-01-13T23:09:06.921Z,9.65
2023-01-13T23:11:36.297Z,9.60
2023-01-13T23:14:08.280Z,6.70
2023-01-13T23:16:40.505Z,11.60
2023-01-13T23:19:11.513Z,10.57
2023-01-13T23:21:40.538Z,9.05
2023-01-13T23:24:09.368Z,8.68
2023-01-13T23:26:38.373Z,8.25
2023-01-13T23:29:09.809Z,12.80
2023-01-13T23:31:39.103Z,9.95
2023-01-13T23:34:08.058Z,10.55
2023-01-13T23:36:41.714Z,6.78
2023-01-13T23:39:10.619Z,10.32
2023-01-13T23:41:39.328Z,7.97
2023-01-13T23:44:08.199Z,10.65
2023-01-13T23:46:37.044Z,8.13
2023-01-13T23:49:06.308Z,7.07
2023-01-13T23:51:35.455Z,7.28
2023-01-13T23:54:04.362Z,7.82
2023-01-13T23:56:33.714Z,10.45
2023-01-13T23:59:02.526Z,7.95
